Time,TemperatureF,DewpointF,PressureIn,WindDirection,WindDirectionDegrees,WindSpeedMPH,WindSpeedGustMPH,Humidity,HourlyPrecipIn,Conditions,Clouds,dailyrainin,SoftwareType,DateUTC
2013-07-09 00:11:00,45.4,39.0,29.97,SE,124,0.0,1.0,78,0.00,,,0.00,weatherlink.com 1.10,2013-07-09 06:11:00,
2013-07-09 00:26:00,45.2,39.0,29.96,SE,126,1.0,2.0,78,0.00,,,0.00,weatherlink.com 1.10,2013-07-09 06:26:00,
2013-07-09 00:41:00,45.5,39.0,29.97,SE,127,0.0,1.0,77,0.00,,,0.00,weatherlink.com 1.10,2013-07-09 06:41:00,
2013-07-09 00:56:00,45.7,39.0,29.97,SE,127,0.0,1.0,76,0.00,,,0.00,weatherlink.com 1.10,2013-07-09 06:56:00,
2013-07-09 01:11:00,45.2,39.0,29.97,SE,127,0.0,0.0,78,0.00,,,0.00,weatherlink.com 1.10,2013-07-09 07:11:00,
2013-07-09 01:26:00,44.7,39.0,29.97,SE,127,0.0,2.0,80,0.00,,,0.00,weatherlink.com 1.10,2013-07-09 07:26:00,
2013-07-09 01:41:00,44.4,39.0,29.98,SE,127,1.0,2.0,80,0.00,,,0.00,weatherlink.com 1.10,2013-07-09 07:41:00,
2013-07-09 01:56:00,44.5,38.0,29.98,ESE,121,2.0,2.0,78,0.00,,,0.00,weatherlink.com 1.10,2013-07-09 07:56:00,
2013-07-09 02:11:00,44.5,38.0,29.97,SE,129,1.0,2.0,78,0.00,,,0.00,weatherlink.com 1.10,2013-07-09 08:11:00,
2013-07-09 02:26:00,44.3,38.0,29.98,SE,135,0.0,1.0,77,0.00,,,0.00,weatherlink.com 1.10,2013-07-09 08:26:00,
2013-07-09 02:41:00,43.7,37.0,29.98,ESE,123,1.0,1.0,78,0.00,,,0.00,weatherlink.com 1.10,2013-07-09 08:41:00,
2013-07-09 02:56:00,43.5,37.0,29.98,ESE,123,2.0,2.0,79,0.00,,,0.00,weatherlink.com 1.10,2013-07-09 08:56:00,
2013-07-09 03:11:00,43.2,37.0,29.98,SE,126,1.0,2.0,79,0.00,,,0.00,weatherlink.com 1.10,2013-07-09 09:11:00,
2013-07-09 03:26:00,43.1,37.0,29.98,SE,135,0.0,2.0,78,0.00,,,0.00,weatherlink.com 1.10,2013-07-09 09:26:00,
2013-07-09 03:41:00,42.9,37.0,29.98,ESE,119,0.0,2.0,80,0.00,,,0.00,weatherlink.com 1.10,2013-07-09 09:41:00,
2013-07-09 03:56:00,42.6,37.0,29.98,ESE,120,1.0,1.0,81,0.00,,,0.00,weatherlink.com 1.10,2013-07-09 09:56:00,
2013-07-09 04:11:00,42.4,37.0,29.98,ESE,121,0.0,2.0,80,0.00,,,0.00,weatherlink.com 1.10,2013-07-09 10:11:00,
2013-07-09 04:27:00,42.7,37.0,29.98,SE,126,0.0,1.0,79,0.00,,,0.00,weatherlink.com 1.10,2013-07-09 10:27:00,
2013-07-09 04:41:00,42.8,37.0,29.99,SE,126,0.0,2.0,79,0.00,,,0.00,weatherlink.com 1.10,2013-07-09 10:41:00,
2013-07-09 04:56:00,42.6,37.0,29.99,SE,126,0.0,1.0,80,0.00,,,0.00,weatherlink.com 1.10,2013-07-09 10:56:00,
2013-07-09 05:11:00,42.0,37.0,30.00,SE,126,0.0,1.0,81,0.00,,,0.00,weatherlink.com 1.10,2013-07-09 11:11:00,
2013-07-09 05:26:00,42.1,36.0,30.00,WNW,288,1.0,3.0,80,0.00,,,0.00,weatherlink.com 1.10,2013-07-09 11:26:00,
2013-07-09 05:42:00,42.0,36.0,30.01,WNW,286,0.0,1.0,79,0.00,,,0.00,weatherlink.com 1.10,2013-07-09 11:42:00,
2013-07-09 05:57:00,41.2,36.0,30.02,WNW,286,0.0,0.0,82,0.00,,,0.00,weatherlink.com 1.10,2013-07-09 11:57:00,
2013-07-09 06:12:00,41.1,37.0,30.02,WNW,286,0.0,0.0,84,0.00,,,0.00,weatherlink.com 1.10,2013-07-09 12:12:00,
2013-07-09 06:27:00,41.2,37.0,30.02,WNW,286,0.0,1.0,84,0.00,,,0.00,weatherlink.com 1.10,2013-07-09 12:27:00,
2013-07-09 06:42:00,41.4,37.0,30.02,SW,214,0.0,1.0,84,0.00,,,0.00,weatherlink.com 1.10,2013-07-09 12:42:00,
2013-07-09 06:57:00,41.2,37.0,30.02,SW,214,0.0,0.0,86,0.00,,,0.00,weatherlink.com 1.10,2013-07-09 12:57:00,
2013-07-09 07:12:00,41.4,38.0,30.02,SW,214,0.0,0.0,86,0.00,,,0.00,weatherlink.com 1.10,2013-07-09 13:12:00,
2013-07-09 07:27:00,42.4,39.0,30.02,SW,214,1.0,1.0,86,0.00,,,0.00,weatherlink.com 1.10,2013-07-09 13:27:00,
2013-07-09 07:42:00,44.2,39.0,30.03,SE,127,1.0,2.0,83,0.00,,,0.00,weatherlink.com 1.10,2013-07-09 13:42:00,
2013-07-09 07:57:00,45.3,40.0,30.02,SE,132,0.0,2.0,82,0.00,,,0.00,weatherlink.com 1.10,2013-07-09 13:57:00,
2013-07-09 08:12:00,47.4,41.0,30.03,SE,132,1.0,1.0,77,0.00,,,0.00,weatherlink.com 1.10,2013-07-09 14:12:00,
2013-07-09 08:27:00,49.5,42.0,30.02,SE,131,0.0,1.0,74,0.00,,,0.00,weatherlink.com 1.10,2013-07-09 14:27:00,
2013-07-09 08:42:00,51.4,41.0,30.02,SE,143,1.0,2.0,68,0.00,,,0.00,weatherlink.com 1.10,2013-07-09 14:42:00,
2013-07-09 08:57:00,54.5,42.0,30.02,SE,130,0.0,1.0,63,0.00,,,0.00,weatherlink.com 1.10,2013-07-09 14:57:00,
2013-07-09 09:12:00,56.6,42.0,30.02,SE,130,0.0,4.0,59,0.00,,,0.00,weatherlink.com 1.10,2013-07-09 15:12:00,
2013-07-09 09:28:00,59.3,41.0,30.01,West,276,0.0,4.0,52,0.00,,,0.00,weatherlink.com 1.10,2013-07-09 15:28:00,
2013-07-09 09:42:00,61.7,38.0,30.01,West,281,0.0,3.0,42,0.00,,,0.00,weatherlink.com 1.10,2013-07-09 15:42:00,
2013-07-09 09:58:00,63.9,36.0,30.01,SW,226,2.0,5.0,36,0.00,,,0.00,weatherlink.com 1.10,2013-07-09 15:58:00,
2013-07-09 10:14:00,65.1,38.0,30.01,WNW,294,3.0,4.0,37,0.00,,,0.00,weatherlink.com 1.10,2013-07-09 16:14:00,
2013-07-09 10:28:00,65.0,37.0,30.01,West,265,0.0,4.0,36,0.00,,,0.00,weatherlink.com 1.10,2013-07-09 16:28:00,
2013-07-09 10:44:00,64.1,36.0,30.01,WNW,285,0.0,4.0,36,0.00,,,0.00,weatherlink.com 1.10,2013-07-09 16:44:00,
2013-07-09 10:59:00,64.8,38.0,30.01,WSW,252,0.0,5.0,37,0.00,,,0.00,weatherlink.com 1.10,2013-07-09 16:59:00,
2013-07-09 11:13:00,65.2,34.0,30.02,West,279,1.0,9.0,32,0.00,,,0.00,weatherlink.com 1.10,2013-07-09 17:13:00,
2013-07-09 11:29:00,64.8,33.0,30.03,WNW,290,2.0,8.0,30,0.00,,,0.00,weatherlink.com 1.10,2013-07-09 17:29:00,
2013-07-09 11:45:00,64.5,32.0,30.02,West,262,0.0,5.0,30,0.00,,,0.00,weatherlink.com 1.10,2013-07-09 17:45:00,
2013-07-09 11:59:00,63.4,34.0,30.01,West,262,0.0,1.0,34,0.00,,,0.00,weatherlink.com 1.10,2013-07-09 17:59:00,
2013-07-09 12:14:00,68.3,34.0,30.00,SSE,158,0.0,3.0,28,0.00,,,0.00,weatherlink.com 1.10,2013-07-09 18:14:00,
2013-07-09 12:30:00,68.6,36.0,29.99,WNW,290,2.0,9.0,30,0.00,,,0.00,weatherlink.com 1.10,2013-07-09 18:30:00,
2013-07-09 12:44:00,69.9,37.0,29.98,WSW,238,0.0,6.0,30,0.00,,,0.00,weatherlink.com 1.10,2013-07-09 18:44:00,
2013-07-09 12:59:00,68.6,33.0,29.98,NW,309,1.0,13.0,27,0.00,,,0.00,weatherlink.com 1.10,2013-07-09 18:59:00,
2013-07-09 13:15:00,68.6,32.0,29.98,WNW,295,3.0,6.0,26,0.00,,,0.00,weatherlink.com 1.10,2013-07-09 19:15:00,
2013-07-09 13:29:00,70.8,32.0,29.98,WNW,293,3.0,10.0,24,0.00,,,0.00,weatherlink.com 1.10,2013-07-09 19:29:00,
2013-07-09 13:45:00,72.0,35.0,29.97,NW,312,6.0,8.0,26,0.00,,,0.00,weatherlink.com 1.10,2013-07-09 19:45:00,
2013-07-09 13:59:00,71.8,34.0,29.97,West,276,2.0,8.0,25,0.00,,,0.00,weatherlink.com 1.10,2013-07-09 19:59:00,
2013-07-09 14:14:00,72.3,33.0,29.97,WNW,296,2.0,11.0,24,0.00,,,0.00,weatherlink.com 1.10,2013-07-09 20:14:00,
2013-07-09 14:30:00,71.9,34.0,29.97,SW,214,5.0,11.0,25,0.00,,,0.00,weatherlink.com 1.10,2013-07-09 20:30:00,
2013-07-09 14:44:00,71.3,35.0,29.96,West,279,5.0,10.0,26,0.00,,,0.00,weatherlink.com 1.10,2013-07-09 20:44:00,
2013-07-09 15:00:00,71.4,35.0,29.96,SSW,207,0.0,5.0,26,0.00,,,0.00,weatherlink.com 1.10,2013-07-09 21:00:00,
2013-07-09 15:16:00,71.6,35.0,29.95,SE,128,0.0,5.0,26,0.00,,,0.00,weatherlink.com 1.10,2013-07-09 21:16:00,
2013-07-09 15:30:00,70.1,33.0,29.95,West,271,1.0,3.0,25,0.00,,,0.00,weatherlink.com 1.10,2013-07-09 21:30:00,
2013-07-09 15:45:00,67.0,37.0,29.97,WNW,302,1.0,11.0,33,0.00,,,0.00,weatherlink.com 1.10,2013-07-09 21:45:00,
2013-07-09 16:00:00,66.9,38.0,29.97,West,270,1.0,12.0,35,0.00,,,0.00,weatherlink.com 1.10,2013-07-09 22:00:00,
2013-07-09 16:15:00,64.6,38.0,29.97,West,268,4.0,10.0,37,0.00,,,0.00,weatherlink.com 1.10,2013-07-09 22:15:00,
2013-07-09 16:31:00,64.6,38.0,29.96,WNW,302,2.0,7.0,38,0.00,,,0.00,weatherlink.com 1.10,2013-07-09 22:31:00,
2013-07-09 16:45:00,66.7,38.0,29.95,WNW,290,3.0,8.0,35,0.00,,,0.00,weatherlink.com 1.10,2013-07-09 22:45:00,
2013-07-09 17:00:00,67.5,38.0,29.95,NW,317,0.0,10.0,34,0.00,,,0.00,weatherlink.com 1.10,2013-07-09 23:00:00,
2013-07-09 17:16:00,66.4,37.0,29.95,WNW,295,1.0,5.0,34,0.00,,,0.00,weatherlink.com 1.10,2013-07-09 23:16:00,
2013-07-09 17:30:00,64.4,39.0,29.96,West,262,1.0,5.0,39,0.00,,,0.00,weatherlink.com 1.10,2013-07-09 23:30:00,
2013-07-09 17:46:00,63.2,38.0,29.96,WSW,238,0.0,3.0,39,0.00,,,0.00,weatherlink.com 1.10,2013-07-09 23:46:00,
2013-07-09 18:02:00,62.3,42.0,29.95,WSW,237,0.0,1.0,48,0.00,,,0.00,weatherlink.com 1.10,2013-07-10 00:02:00,
2013-07-09 18:16:00,60.7,44.0,29.95,SW,224,0.0,1.0,55,0.00,,,0.00,weatherlink.com 1.10,2013-07-10 00:16:00,
2013-07-09 18:31:00,59.0,46.0,29.95,SW,224,0.0,0.0,63,0.00,,,0.00,weatherlink.com 1.10,2013-07-10 00:31:00,
2013-07-09 18:45:00,58.6,46.0,29.95,SW,224,0.0,0.0,64,0.00,,,0.00,weatherlink.com 1.10,2013-07-10 00:45:00,
2013-07-09 19:01:00,58.4,46.0,29.94,SW,224,0.0,0.0,63,0.00,,,0.00,weatherlink.com 1.10,2013-07-10 01:01:00,
2013-07-09 19:17:00,60.0,48.0,29.94,SW,225,0.0,0.0,65,0.00,,,0.00,weatherlink.com 1.10,2013-07-10 01:17:00,
2013-07-09 19:31:00,59.7,45.0,29.94,West,278,0.0,1.0,58,0.00,,,0.00,weatherlink.com 1.10,2013-07-10 01:31:00,
2013-07-09 19:46:00,58.4,43.0,29.94,West,278,0.0,1.0,57,0.00,,,0.00,weatherlink.com 1.10,2013-07-10 01:46:00,
2013-07-09 20:02:00,56.8,44.0,29.95,West,278,0.0,0.0,62,0.00,,,0.00,weatherlink.com 1.10,2013-07-10 02:02:00,
2013-07-09 20:17:00,54.9,43.0,29.95,West,278,0.0,0.0,64,0.00,,,0.00,weatherlink.com 1.10,2013-07-10 02:17:00,
2013-07-09 20:31:00,53.6,43.0,29.95,West,278,0.0,0.0,68,0.00,,,0.00,weatherlink.com 1.10,2013-07-10 02:31:00,
2013-07-09 20:47:00,52.6,42.0,29.96,South,170,0.0,0.0,68,0.00,,,0.00,weatherlink.com 1.10,2013-07-10 02:47:00,
2013-07-09 21:01:00,52.0,41.0,29.97,SE,125,1.0,2.0,67,0.00,,,0.00,weatherlink.com 1.10,2013-07-10 03:01:00,
2013-07-09 21:17:00,51.5,41.0,29.98,ESE,123,0.0,2.0,67,0.00,,,0.00,weatherlink.com 1.10,2013-07-10 03:17:00,
2013-07-09 21:32:00,50.8,40.0,29.98,SE,126,2.0,3.0,67,0.00,,,0.00,weatherlink.com 1.10,2013-07-10 03:32:00,
2013-07-09 21:46:00,50.6,41.0,29.99,SE,133,0.0,1.0,69,0.00,,,0.00,weatherlink.com 1.10,2013-07-10 03:46:00,
2013-07-09 22:02:00,49.9,39.0,30.00,SE,138,0.0,2.0,67,0.00,,,0.00,weatherlink.com 1.10,2013-07-10 04:02:00,
2013-07-09 22:18:00,49.7,39.0,30.01,SE,139,0.0,1.0,68,0.00,,,0.00,weatherlink.com 1.10,2013-07-10 04:18:00,
2013-07-09 22:32:00,49.8,40.0,30.01,SE,131,1.0,2.0,68,0.00,,,0.00,weatherlink.com 1.10,2013-07-10 04:32:00,
2013-07-09 22:47:00,49.6,40.0,30.01,SE,134,0.0,1.0,70,0.00,,,0.00,weatherlink.com 1.10,2013-07-10 04:47:00,
2013-07-09 23:03:00,49.3,40.0,30.01,SE,134,0.0,1.0,71,0.00,,,0.00,weatherlink.com 1.10,2013-07-10 05:03:00,
2013-07-09 23:18:00,49.1,40.0,30.02,SE,134,0.0,1.0,70,0.00,,,0.00,weatherlink.com 1.10,2013-07-10 05:18:00,
2013-07-09 23:32:00,48.6,40.0,30.02,SE,134,0.0,1.0,72,0.00,,,0.00,weatherlink.com 1.10,2013-07-10 05:32:00,
2013-07-09 23:48:00,48.5,40.0,30.02,SE,134,0.0,0.0,73,0.00,,,0.00,weatherlink.com 1.10,2013-07-10 05:48:00,